sensor_id;sensor_type;location;lat;lon;timestamp;pressure;altitude;pressure_sealevel;temperature;humidity
13594;BME280;6449;47.666;9.160;2024-01-30T00:02:39;98493.03;;;2.38;100.00
13594;BME280;6449;47.666;9.160;2024-01-30T00:07:33;98486.47;;;2.68;100.00
13594;BME280;6449;47.666;9.160;2024-01-30T00:12:28;98488.81;;;2.32;100.00
13594;BME280;6449;47.666;9.160;2024-01-30T00:17:21;98492.13;;;2.40;100.00
13594;BME280;6449;47.666;9.160;2024-01-30T00:22:17;98495.31;;;2.05;100.00
13594;BME280;6449;47.666;9.160;2024-01-30T00:27:10;98495.94;;;2.19;100.00
13594;BME280;6449;47.666;9.160;2024-01-30T00:32:06;98489.13;;;2.14;100.00
13594;BME280;6449;47.666;9.160;2024-01-30T00:37:00;98493.13;;;2.31;100.00
13594;BME280;6449;47.666;9.160;2024-01-30T00:41:55;98488.84;;;2.30;100.00
13594;BME280;6449;47.666;9.160;2024-01-30T00:46:48;98490.63;;;2.27;100.00
13594;BME280;6449;47.666;9.160;2024-01-30T00:51:43;98498.56;;;2.16;100.00
13594;BME280;6449;47.666;9.160;2024-01-30T00:56:37;98494.25;;;2.17;100.00
13594;BME280;6449;47.666;9.160;2024-01-30T01:01:33;98484.34;;;2.42;100.00
13594;BME280;6449;47.666;9.160;2024-01-30T01:06:27;98489.28;;;2.54;100.00
13594;BME280;6449;47.666;9.160;2024-01-30T01:11:22;98504.41;;;2.27;100.00
13594;BME280;6449;47.666;9.160;2024-01-30T01:16:15;98501.88;;;2.26;100.00
13594;BME280;6449;47.666;9.160;2024-01-30T01:21:09;98507.38;;;2.04;100.00
13594;BME280;6449;47.666;9.160;2024-01-30T01:26:03;98501.41;;;2.01;100.00
13594;BME280;6449;47.666;9.160;2024-01-30T01:30:59;98502.94;;;2.13;100.00
13594;BME280;6449;47.666;9.160;2024-01-30T01:35:58;98506.66;;;1.95;100.00
13594;BME280;6449;47.666;9.160;2024-01-30T01:40:51;98501.53;;;1.92;100.00
13594;BME280;6449;47.666;9.160;2024-01-30T01:45:46;98511.00;;;1.94;100.00
13594;BME280;6449;47.666;9.160;2024-01-30T01:50:43;98503.88;;;2.08;100.00
13594;BME280;6449;47.666;9.160;2024-01-30T01:55:37;98505.66;;;2.05;100.00
13594;BME280;6449;47.666;9.160;2024-01-30T02:00:32;98498.59;;;2.15;100.00
13594;BME280;6449;47.666;9.160;2024-01-30T02:05:30;98498.81;;;2.01;100.00
13594;BME280;6449;47.666;9.160;2024-01-30T02:10:26;98500.66;;;1.94;100.00
13594;BME280;6449;47.666;9.160;2024-01-30T02:15:20;98499.81;;;1.92;100.00
13594;BME280;6449;47.666;9.160;2024-01-30T02:20:13;98497.91;;;2.03;100.00
13594;BME280;6449;47.666;9.160;2024-01-30T02:25:08;98493.78;;;1.93;100.00
13594;BME280;6449;47.666;9.160;2024-01-30T02:30:03;98495.94;;;1.64;100.00
13594;BME280;6449;47.666;9.160;2024-01-30T02:34:56;98488.16;;;1.64;100.00
13594;BME280;6449;47.666;9.160;2024-01-30T02:39:50;98492.38;;;1.72;100.00
13594;BME280;6449;47.666;9.160;2024-01-30T02:44:45;98487.94;;;1.79;100.00
13594;BME280;6449;47.666;9.160;2024-01-30T02:49:38;98493.22;;;1.73;100.00
13594;BME280;6449;47.666;9.160;2024-01-30T02:54:32;98488.03;;;1.73;100.00
13594;BME280;6449;47.666;9.160;2024-01-30T02:59:26;98497.63;;;1.66;100.00
13594;BME280;6449;47.666;9.160;2024-01-30T03:04:21;98482.91;;;1.70;100.00
13594;BME280;6449;47.666;9.160;2024-01-30T03:09:16;98488.72;;;1.84;100.00
13594;BME280;6449;47.666;9.160;2024-01-30T03:14:10;98473.97;;;1.92;100.00
13594;BME280;6449;47.666;9.160;2024-01-30T03:19:06;98487.81;;;1.88;100.00
13594;BME280;6449;47.666;9.160;2024-01-30T03:24:03;98482.50;;;1.97;100.00
13594;BME280;6449;47.666;9.160;2024-01-30T03:28:57;98490.50;;;1.82;100.00
13594;BME280;6449;47.666;9.160;2024-01-30T03:33:50;98479.38;;;1.77;100.00
13594;BME280;6449;47.666;9.160;2024-01-30T03:38:44;98482.88;;;1.73;100.00
13594;BME280;6449;47.666;9.160;2024-01-30T03:43:40;98479.19;;;1.89;100.00
13594;BME280;6449;47.666;9.160;2024-01-30T03:48:33;98479.31;;;1.80;100.00
13594;BME280;6449;47.666;9.160;2024-01-30T03:53:27;98483.19;;;2.08;100.00
13594;BME280;6449;47.666;9.160;2024-01-30T03:58:21;98489.81;;;1.71;100.00
13594;BME280;6449;47.666;9.160;2024-01-30T04:03:16;98485.66;;;1.59;100.00
13594;BME280;6449;47.666;9.160;2024-01-30T04:08:12;98479.84;;;1.43;100.00
13594;BME280;6449;47.666;9.160;2024-01-30T04:13:06;98479.09;;;1.35;100.00
13594;BME280;6449;47.666;9.160;2024-01-30T04:18:04;98472.03;;;1.49;100.00
13594;BME280;6449;47.666;9.160;2024-01-30T04:38:13;98488.69;;;1.27;100.00
13594;BME280;6449;47.666;9.160;2024-01-30T04:53:22;98480.25;;;1.14;100.00
13594;BME280;6449;47.666;9.160;2024-01-30T05:03:37;98482.47;;;1.40;100.00
13594;BME280;6449;47.666;9.160;2024-01-30T05:23:47;98498.19;;;1.25;100.00
13594;BME280;6449;47.666;9.160;2024-01-30T05:28:40;98502.38;;;1.32;100.00
13594;BME280;6449;47.666;9.160;2024-01-30T05:33:36;98513.66;;;1.28;100.00
13594;BME280;6449;47.666;9.160;2024-01-30T05:38:30;98513.22;;;0.92;100.00
13594;BME280;6449;47.666;9.160;2024-01-30T05:43:25;98510.38;;;1.14;100.00
13594;BME280;6449;47.666;9.160;2024-01-30T06:18:51;98506.47;;;1.50;100.00
13594;BME280;6449;47.666;9.160;2024-01-30T06:33:53;98517.66;;;1.49;100.00
13594;BME280;6449;47.666;9.160;2024-01-30T06:38:47;98512.16;;;1.73;100.00
13594;BME280;6449;47.666;9.160;2024-01-30T06:43:41;98513.09;;;1.68;100.00
13594;BME280;6449;47.666;9.160;2024-01-30T06:48:37;98518.25;;;1.71;100.00
13594;BME280;6449;47.666;9.160;2024-01-30T06:53:34;98531.28;;;1.62;100.00
13594;BME280;6449;47.666;9.160;2024-01-30T06:58:28;98528.94;;;1.45;100.00
13594;BME280;6449;47.666;9.160;2024-01-30T07:03:22;98529.72;;;1.48;100.00
13594;BME280;6449;47.666;9.160;2024-01-30T07:08:16;98542.13;;;1.23;100.00
13594;BME280;6449;47.666;9.160;2024-01-30T07:13:11;98542.06;;;1.28;100.00
13594;BME280;6449;47.666;9.160;2024-01-30T07:18:06;98542.97;;;1.24;100.00
13594;BME280;6449;47.666;9.160;2024-01-30T07:23:00;98543.97;;;1.14;100.00
13594;BME280;6449;47.666;9.160;2024-01-30T07:27:54;98549.63;;;1.42;100.00
13594;BME280;6449;47.666;9.160;2024-01-30T07:32:50;98549.78;;;1.29;100.00
13594;BME280;6449;47.666;9.160;2024-01-30T07:37:43;98549.59;;;1.43;100.00
13594;BME280;6449;47.666;9.160;2024-01-30T07:42:37;98546.06;;;1.52;100.00
13594;BME280;6449;47.666;9.160;2024-01-30T07:47:31;98552.97;;;1.51;100.00
13594;BME280;6449;47.666;9.160;2024-01-30T07:52:26;98559.66;;;1.65;100.00
13594;BME280;6449;47.666;9.160;2024-01-30T07:57:20;98564.78;;;1.69;100.00
13594;BME280;6449;47.666;9.160;2024-01-30T08:02:14;98568.28;;;1.67;100.00
13594;BME280;6449;47.666;9.160;2024-01-30T08:07:07;98576.03;;;1.67;100.00
13594;BME280;6449;47.666;9.160;2024-01-30T08:12:03;98578.09;;;1.40;100.00
13594;BME280;6449;47.666;9.160;2024-01-30T08:16:57;98572.53;;;1.69;100.00
13594;BME280;6449;47.666;9.160;2024-01-30T08:21:51;98566.19;;;1.92;100.00
13594;BME280;6449;47.666;9.160;2024-01-30T08:26:47;98566.88;;;2.04;100.00
13594;BME280;6449;47.666;9.160;2024-01-30T08:31:44;98579.91;;;1.98;100.00
13594;BME280;6449;47.666;9.160;2024-01-30T08:36:38;98577.16;;;2.07;100.00
13594;BME280;6449;47.666;9.160;2024-01-30T08:41:32;98586.03;;;1.90;100.00
13594;BME280;6449;47.666;9.160;2024-01-30T08:46:28;98588.06;;;1.68;100.00
13594;BME280;6449;47.666;9.160;2024-01-30T08:51:24;98583.91;;;1.54;100.00
13594;BME280;6449;47.666;9.160;2024-01-30T08:56:18;98589.13;;;1.51;100.00
13594;BME280;6449;47.666;9.160;2024-01-30T09:01:12;98593.22;;;1.71;100.00
13594;BME280;6449;47.666;9.160;2024-01-30T09:06:08;98588.91;;;1.71;100.00
13594;BME280;6449;47.666;9.160;2024-01-30T09:11:09;98590.69;;;1.65;100.00
13594;BME280;6449;47.666;9.160;2024-01-30T09:16:03;98591.72;;;2.15;100.00
13594;BME280;6449;47.666;9.160;2024-01-30T09:21:00;98597.00;;;2.07;100.00
13594;BME280;6449;47.666;9.160;2024-01-30T09:25:54;98597.94;;;2.03;100.00
13594;BME280;6449;47.666;9.160;2024-01-30T09:30:50;98599.91;;;1.84;100.00
13594;BME280;6449;47.666;9.160;2024-01-30T09:35:43;98595.41;;;1.97;100.00
13594;BME280;6449;47.666;9.160;2024-01-30T09:40:37;98606.63;;;1.99;100.00
13594;BME280;6449;47.666;9.160;2024-01-30T09:45:33;98600.19;;;2.26;100.00
13594;BME280;6449;47.666;9.160;2024-01-30T09:50:29;98609.88;;;2.13;100.00
13594;BME280;6449;47.666;9.160;2024-01-30T09:55:24;98610.94;;;1.98;100.00
13594;BME280;6449;47.666;9.160;2024-01-30T10:00:22;98603.72;;;2.20;100.00
13594;BME280;6449;47.666;9.160;2024-01-30T10:05:20;98605.91;;;2.46;100.00
13594;BME280;6449;47.666;9.160;2024-01-30T10:10:19;98607.03;;;2.28;100.00
13594;BME280;6449;47.666;9.160;2024-01-30T10:15:14;98610.41;;;2.33;100.00
13594;BME280;6449;47.666;9.160;2024-01-30T10:20:12;98600.91;;;2.34;100.00
13594;BME280;6449;47.666;9.160;2024-01-30T10:25:10;98604.31;;;2.38;100.00
13594;BME280;6449;47.666;9.160;2024-01-30T10:35:05;98586.97;;;2.43;100.00
13594;BME280;6449;47.666;9.160;2024-01-30T10:40:03;98595.16;;;2.15;100.00
13594;BME280;6449;47.666;9.160;2024-01-30T10:45:06;98588.28;;;2.14;100.00
13594;BME280;6449;47.666;9.160;2024-01-30T10:50:04;98577.81;;;2.22;100.00
13594;BME280;6449;47.666;9.160;2024-01-30T10:55:00;98567.38;;;2.79;100.00
13594;BME280;6449;47.666;9.160;2024-01-30T10:59:58;98568.78;;;2.97;100.00
13594;BME280;6449;47.666;9.160;2024-01-30T11:04:59;98576.69;;;2.89;100.00
13594;BME280;6449;47.666;9.160;2024-01-30T11:10:03;98567.47;;;2.74;100.00
13594;BME280;6449;47.666;9.160;2024-01-30T11:15:06;98571.81;;;2.72;100.00
13594;BME280;6449;47.666;9.160;2024-01-30T11:20:00;98556.78;;;2.91;100.00
13594;BME280;6449;47.666;9.160;2024-01-30T11:25:02;98549.19;;;3.27;100.00
13594;BME280;6449;47.666;9.160;2024-01-30T11:30:02;98547.38;;;3.32;100.00
13594;BME280;6449;47.666;9.160;2024-01-30T11:35:03;98547.50;;;3.26;100.00
13594;BME280;6449;47.666;9.160;2024-01-30T11:50:14;98535.63;;;3.14;100.00
13594;BME280;6449;47.666;9.160;2024-01-30T12:05:24;98505.63;;;3.44;100.00
13594;BME280;6449;47.666;9.160;2024-01-30T12:15:21;98494.66;;;3.73;100.00
13594;BME280;6449;47.666;9.160;2024-01-30T12:20:18;98501.13;;;3.91;100.00
13594;BME280;6449;47.666;9.160;2024-01-30T12:40:42;98483.41;;;4.08;100.00
13594;BME280;6449;47.666;9.160;2024-01-30T12:50:53;98481.34;;;4.23;100.00
13594;BME280;6449;47.666;9.160;2024-01-30T12:55:48;98477.63;;;4.33;100.00
13594;BME280;6449;47.666;9.160;2024-01-30T13:00:42;98472.22;;;4.40;100.00
13594;BME280;6449;47.666;9.160;2024-01-30T13:05:37;98474.66;;;4.48;100.00
13594;BME280;6449;47.666;9.160;2024-01-30T13:10:31;98478.16;;;4.45;100.00
13594;BME280;6449;47.666;9.160;2024-01-30T13:15:26;98478.94;;;4.49;100.00
13594;BME280;6449;47.666;9.160;2024-01-30T13:20:25;98473.28;;;4.66;100.00
13594;BME280;6449;47.666;9.160;2024-01-30T13:25:31;98474.94;;;4.68;100.00
13594;BME280;6449;47.666;9.160;2024-01-30T13:35:33;98473.19;;;4.70;100.00
13594;BME280;6449;47.666;9.160;2024-01-30T13:40:27;98479.28;;;4.69;100.00
13594;BME280;6449;47.666;9.160;2024-01-30T13:56:01;98479.41;;;4.63;100.00
13594;BME280;6449;47.666;9.160;2024-01-30T14:06:24;98487.47;;;4.54;100.00
13594;BME280;6449;47.666;9.160;2024-01-30T14:11:23;98480.81;;;4.44;100.00
13594;BME280;6449;47.666;9.160;2024-01-30T14:16:17;98475.78;;;4.38;100.00
13594;BME280;6449;47.666;9.160;2024-01-30T14:21:11;98473.97;;;4.40;100.00
13594;BME280;6449;47.666;9.160;2024-01-30T14:26:07;98467.00;;;4.42;100.00
13594;BME280;6449;47.666;9.160;2024-01-30T14:56:38;98464.59;;;4.00;100.00
13594;BME280;6449;47.666;9.160;2024-01-30T18:31:49;98587.22;;;3.70;100.00
13594;BME280;6449;47.666;9.160;2024-01-30T18:36:42;98580.34;;;3.67;100.00
13594;BME280;6449;47.666;9.160;2024-01-30T18:41:36;98588.28;;;3.59;100.00
13594;BME280;6449;47.666;9.160;2024-01-30T18:46:30;98593.47;;;3.59;100.00
13594;BME280;6449;47.666;9.160;2024-01-30T22:49:13;98626.75;;;3.37;100.00
13594;BME280;6449;47.666;9.160;2024-01-30T22:54:07;98631.97;;;3.36;100.00
13594;BME280;6449;47.666;9.160;2024-01-30T22:59:03;98644.75;;;3.45;100.00
13594;BME280;6449;47.666;9.160;2024-01-30T23:03:56;98638.38;;;3.61;100.00
